Time;durP1;ratioP1;P1;durP2;ratioP2;P2;SDS_P1;SDS_P2;PMS_P1;PMS_P2;Temp;Humidity;BMP_temperature;BMP_pressure;BME280_temperature;BME280_humidity;BME280_pressure;Samples;Min_cycle;Max_cycle;Signal;HPM_P1;HPM_P2
2021/05/15 00:01:25;;;;;;;0.00;0.00;;;;;;;;;;5057825;28;20369;-74
2021/05/15 00:03:50;;;;;;;0.00;0.00;;;;;;;;;;5079826;28;20271;-73
2021/05/15 00:06:15;;;;;;;0.00;0.00;;;;;;;;;;5098545;28;20035;-73
2021/05/15 00:08:41;;;;;;;0.10;0.10;;;;;;;;;;5080316;28;20031;-73
2021/05/15 00:11:06;;;;;;;0.10;0.10;;;;;;;;;;5058499;28;20627;-74
2021/05/15 00:13:31;;;;;;;0.00;0.00;;;;;;;;;;5092040;28;20323;-74
2021/05/15 00:15:57;;;;;;;0.00;0.00;;;;;;;;;;5065315;28;20392;-74
2021/05/15 00:18:23;;;;;;;0.00;0.00;;;;;;;;;;5074606;28;20345;-73
2021/05/15 00:20:48;;;;;;;0.00;0.00;;;;;;;;;;5082905;28;20052;-74
2021/05/15 00:23:13;;;;;;;0.00;0.00;;;;;;;;;;5085303;28;20008;-74
2021/05/15 00:25:38;;;;;;;0.10;0.10;;;;;;;;;;5100453;28;20266;-74
2021/05/15 00:28:04;;;;;;;0.10;0.10;;;;;;;;;;5075643;28;20019;-73
2021/05/15 00:30:29;;;;;;;0.10;0.10;;;;;;;;;;5076608;28;20020;-74
2021/05/15 00:32:54;;;;;;;0.00;0.00;;;;;;;;;;5077697;28;20024;-73
2021/05/15 00:35:19;;;;;;;0.00;0.00;;;;;;;;;;5070867;28;20674;-73
2021/05/15 00:37:44;;;;;;;0.00;0.00;;;;;;;;;;5070965;28;20262;-74
2021/05/15 00:40:10;;;;;;;0.10;0.10;;;;;;;;;;5088767;28;20261;-74
2021/05/15 00:42:36;;;;;;;0.10;0.10;;;;;;;;;;5085171;28;20024;-73
2021/05/15 00:45:01;;;;;;;0.10;0.10;;;;;;;;;;5097085;28;20034;-73
2021/05/15 00:47:26;;;;;;;0.00;0.00;;;;;;;;;;5069160;28;20020;-74
2021/05/15 00:49:52;;;;;;;0.10;0.10;;;;;;;;;;5083047;28;20042;-74
2021/05/15 00:52:17;;;;;;;0.10;0.10;;;;;;;;;;5083047;28;20028;-73
2021/05/15 00:54:42;;;;;;;0.00;0.00;;;;;;;;;;5091533;28;20017;-73
2021/05/15 00:57:08;;;;;;;0.00;0.00;;;;;;;;;;5055784;28;20020;-74
2021/05/15 00:59:34;;;;;;;0.10;0.10;;;;;;;;;;5056243;28;20027;-73
2021/05/15 01:01:59;;;;;;;0.00;0.00;;;;;;;;;;5098700;28;20070;-74
2021/05/15 01:04:24;;;;;;;0.00;0.00;;;;;;;;;;5057241;28;20059;-73
2021/05/15 01:06:50;;;;;;;0.10;0.10;;;;;;;;;;5054531;28;20373;-73
2021/05/15 01:09:15;;;;;;;0.00;0.00;;;;;;;;;;5057236;28;20271;-73
2021/05/15 01:11:40;;;;;;;0.10;0.10;;;;;;;;;;5082939;28;20057;-73
2021/05/15 01:14:05;;;;;;;0.00;0.00;;;;;;;;;;5072988;28;20294;-73
2021/05/15 01:16:31;;;;;;;0.10;0.10;;;;;;;;;;5088205;28;20263;-73
2021/05/15 01:18:57;;;;;;;0.00;0.00;;;;;;;;;;5086238;28;20012;-73
2021/05/15 01:21:22;;;;;;;0.00;0.00;;;;;;;;;;5054383;28;20024;-73
2021/05/15 01:23:47;;;;;;;0.10;0.10;;;;;;;;;;5094475;28;20036;-73
2021/05/15 01:26:16;;;;;;;0.00;0.00;;;;;;;;;;5095830;28;20266;-74
2021/05/15 01:28:42;;;;;;;0.10;0.10;;;;;;;;;;5076761;28;20020;-74
2021/05/15 01:31:07;;;;;;;0.10;0.10;;;;;;;;;;5071959;28;20384;-74
2021/05/15 01:33:32;;;;;;;0.10;0.10;;;;;;;;;;5060489;28;20041;-74
2021/05/15 01:35:57;;;;;;;0.03;0.03;;;;;;;;;;5078911;28;20362;-74
2021/05/15 01:38:23;;;;;;;0.10;0.10;;;;;;;;;;5078004;28;20766;-74
2021/05/15 01:40:48;;;;;;;0.00;0.00;;;;;;;;;;5060753;28;20388;-73
2021/05/15 01:43:22;;;;;;;0.10;0.10;;;;;;;;;;5091286;28;20258;-74
2021/05/15 01:45:47;;;;;;;0.00;0.00;;;;;;;;;;5059953;28;20119;-74
2021/05/15 01:48:18;;;;;;;0.10;0.10;;;;;;;;;;5073943;28;20494;-74
2021/05/15 01:50:59;;;;;;;0.10;0.10;;;;;;;;;;5093662;28;20157;-73
2021/05/15 01:53:25;;;;;;;0.10;0.10;;;;;;;;;;5063838;28;20024;-74
2021/05/15 01:55:51;;;;;;;0.10;0.10;;;;;;;;;;5061396;28;20012;-74
2021/05/15 01:58:16;;;;;;;0.10;0.10;;;;;;;;;;5080535;28;20023;-74
2021/05/15 02:00:41;;;;;;;0.10;0.10;;;;;;;;;;5077122;28;20028;-73
2021/05/15 02:03:07;;;;;;;0.10;0.10;;;;;;;;;;5054704;28;20028;-74
2021/05/15 02:05:32;;;;;;;0.10;0.10;;;;;;;;;;5072337;28;20306;-74
2021/05/15 02:07:57;;;;;;;0.10;0.10;;;;;;;;;;5080484;28;20496;-74
2021/05/15 02:10:22;;;;;;;0.10;0.10;;;;;;;;;;5076427;28;20273;-74
2021/05/15 02:12:47;;;;;;;0.10;0.10;;;;;;;;;;5077455;28;20784;-74
2021/05/15 02:15:13;;;;;;;0.10;0.10;;;;;;;;;;5072648;28;20507;-74
2021/05/15 02:17:38;;;;;;;0.10;0.10;;;;;;;;;;5077732;28;20024;-74
2021/05/15 02:20:03;;;;;;;0.10;0.10;;;;;;;;;;5068790;28;20095;-74
2021/05/15 02:22:28;;;;;;;0.10;0.10;;;;;;;;;;5075181;28;20270;-75
2021/05/15 02:24:54;;;;;;;0.10;0.10;;;;;;;;;;5078444;28;20431;-74
2021/05/15 02:27:19;;;;;;;0.10;0.10;;;;;;;;;;5069875;28;20263;-74
2021/05/15 02:29:44;;;;;;;0.00;0.00;;;;;;;;;;5094626;28;20262;-74
2021/05/15 02:32:09;;;;;;;0.10;0.10;;;;;;;;;;5061335;28;20104;-74
2021/05/15 02:34:34;;;;;;;0.10;0.10;;;;;;;;;;5085192;28;20050;-74
2021/05/15 02:36:59;;;;;;;0.10;0.10;;;;;;;;;;5099666;28;20297;-74
2021/05/15 02:39:25;;;;;;;0.10;0.10;;;;;;;;;;5094243;28;20318;-74
2021/05/15 02:41:50;;;;;;;0.10;0.10;;;;;;;;;;5079206;28;20741;-74
2021/05/15 02:44:15;;;;;;;0.10;0.10;;;;;;;;;;5116778;28;20273;-74
2021/05/15 02:46:40;;;;;;;0.10;0.10;;;;;;;;;;5080596;28;20030;-74
2021/05/15 02:49:05;;;;;;;0.10;0.10;;;;;;;;;;5095100;28;20038;-74
2021/05/15 02:51:31;;;;;;;0.10;0.10;;;;;;;;;;5117578;28;20277;-74
2021/05/15 02:53:56;;;;;;;0.10;0.10;;;;;;;;;;5099395;28;20357;-74
2021/05/15 02:56:21;;;;;;;0.10;0.10;;;;;;;;;;5098825;28;20021;-74
2021/05/15 02:58:47;;;;;;;0.10;0.10;;;;;;;;;;5097265;28;20020;-74
2021/05/15 03:01:12;;;;;;;0.10;0.10;;;;;;;;;;5114254;28;20095;-74
2021/05/15 03:03:37;;;;;;;0.10;0.10;;;;;;;;;;5118905;28;20261;-74
2021/05/15 03:06:02;;;;;;;0.10;0.10;;;;;;;;;;5084479;28;20023;-74
2021/05/15 03:08:27;;;;;;;0.10;0.10;;;;;;;;;;5098308;28;20261;-69
2021/05/15 03:10:53;;;;;;;0.10;0.10;;;;;;;;;;5096473;28;20117;-69
2021/05/15 03:13:18;;;;;;;0.10;0.10;;;;;;;;;;5079543;28;21624;-69
2021/05/15 03:15:43;;;;;;;0.10;0.10;;;;;;;;;;5098833;28;20344;-69
2021/05/15 03:18:09;;;;;;;0.10;0.10;;;;;;;;;;5087659;28;20011;-69
2021/05/15 03:20:34;;;;;;;0.10;0.10;;;;;;;;;;5104522;28;20250;-69
2021/05/15 03:22:59;;;;;;;0.10;0.10;;;;;;;;;;5102895;28;20272;-69
2021/05/15 03:25:25;;;;;;;0.10;0.10;;;;;;;;;;5094559;28;20447;-69
2021/05/15 03:27:50;;;;;;;0.10;0.10;;;;;;;;;;5075427;28;20273;-69
2021/05/15 03:30:15;;;;;;;0.10;0.10;;;;;;;;;;5099755;28;20031;-69
2021/05/15 03:32:41;;;;;;;0.10;0.10;;;;;;;;;;5081519;28;20016;-70
2021/05/15 03:35:07;;;;;;;0.10;0.10;;;;;;;;;;5085806;28;20051;-70
2021/05/15 03:37:32;;;;;;;0.10;0.10;;;;;;;;;;5085482;28;20024;-70
2021/05/15 03:39:57;;;;;;;0.10;0.10;;;;;;;;;;5084611;28;20016;-69
2021/05/15 03:42:22;;;;;;;0.10;0.10;;;;;;;;;;5074493;28;20270;-69
2021/05/15 03:44:48;;;;;;;0.10;0.10;;;;;;;;;;5076275;28;20447;-69
2021/05/15 03:47:13;;;;;;;0.10;0.10;;;;;;;;;;5082600;28;20361;-69
2021/05/15 03:49:38;;;;;;;0.10;0.10;;;;;;;;;;5079108;28;20020;-69
2021/05/15 03:52:03;;;;;;;0.10;0.10;;;;;;;;;;5100915;28;20761;-69
2021/05/15 03:54:29;;;;;;;0.03;0.03;;;;;;;;;;5056897;28;20270;-70
2021/05/15 03:56:54;;;;;;;0.10;0.10;;;;;;;;;;5077568;28;20020;-69
2021/05/15 03:59:19;;;;;;;0.10;0.10;;;;;;;;;;5099606;28;20012;-69
2021/05/15 04:01:46;;;;;;;0.00;0.00;;;;;;;;;;5094653;28;20251;-69
2021/05/15 04:04:11;;;;;;;0.10;0.10;;;;;;;;;;5065316;28;20275;-69
2021/05/15 04:06:36;;;;;;;0.10;0.10;;;;;;;;;;5082787;28;20027;-69
2021/05/15 04:09:01;;;;;;;0.10;0.10;;;;;;;;;;5084028;28;20020;-69
2021/05/15 04:11:39;;;;;;;0.10;0.10;;;;;;;;;;5091581;28;20378;-69
2021/05/15 04:19:26;;;;;;;0.08;0.08;;;;;;;;;;5099493;28;20131;-69
2021/05/15 04:21:52;;;;;;;0.10;0.10;;;;;;;;;;5090839;28;20052;-70
2021/05/15 04:24:17;;;;;;;0.10;0.10;;;;;;;;;;5064104;28;20047;-69
2021/05/15 04:26:42;;;;;;;0.10;0.10;;;;;;;;;;5068609;28;20088;-70
2021/05/15 04:29:07;;;;;;;0.10;0.10;;;;;;;;;;5069153;28;20283;-70
2021/05/15 04:31:32;;;;;;;0.10;0.10;;;;;;;;;;5075182;28;20610;-70
2021/05/15 04:33:57;;;;;;;0.10;0.10;;;;;;;;;;5088355;28;20294;-69
2021/05/15 04:36:23;;;;;;;0.00;0.00;;;;;;;;;;5095666;28;20008;-69
2021/05/15 04:38:51;;;;;;;0.10;0.10;;;;;;;;;;5087289;28;20266;-70
2021/05/15 04:41:17;;;;;;;0.10;0.10;;;;;;;;;;5064507;28;20020;-69
2021/05/15 04:43:42;;;;;;;0.10;0.10;;;;;;;;;;5082182;28;20020;-69
2021/05/15 04:46:07;;;;;;;0.10;0.10;;;;;;;;;;5090062;28;20741;-70
2021/05/15 04:48:34;;;;;;;0.10;0.10;;;;;;;;;;5096127;28;20327;-69
2021/05/15 04:50:59;;;;;;;0.10;0.10;;;;;;;;;;5064932;28;20039;-70
2021/05/15 04:53:25;;;;;;;0.10;0.10;;;;;;;;;;5088199;28;20024;-70
2021/05/15 04:55:50;;;;;;;0.10;0.10;;;;;;;;;;5084389;28;20477;-69
2021/05/15 04:58:17;;;;;;;0.10;0.10;;;;;;;;;;5096736;28;20273;-70
2021/05/15 05:00:43;;;;;;;0.10;0.10;;;;;;;;;;5095025;28;20274;-69
2021/05/15 05:03:08;;;;;;;0.00;0.00;;;;;;;;;;5082965;28;20009;-69
2021/05/15 05:05:33;;;;;;;0.10;0.10;;;;;;;;;;5096490;28;20265;-69
2021/05/15 05:07:58;;;;;;;0.10;0.10;;;;;;;;;;5091907;28;20259;-69
2021/05/15 05:10:24;;;;;;;0.05;0.05;;;;;;;;;;5079752;28;20397;-70
2021/05/15 05:12:49;;;;;;;0.10;0.10;;;;;;;;;;5086030;28;20555;-69
2021/05/15 05:15:14;;;;;;;0.10;0.10;;;;;;;;;;5079697;28;20039;-69
2021/05/15 05:17:39;;;;;;;0.00;0.00;;;;;;;;;;5063734;28;20250;-69
2021/05/15 05:20:05;;;;;;;0.10;0.10;;;;;;;;;;5060827;28;20083;-69
2021/05/15 05:22:30;;;;;;;0.08;0.08;;;;;;;;;;5055480;28;20025;-70
2021/05/15 05:24:55;;;;;;;0.10;0.10;;;;;;;;;;5061428;28;20021;-69
2021/05/15 05:27:22;;;;;;;0.10;0.10;;;;;;;;;;5077308;28;20020;-69
2021/05/15 05:29:47;;;;;;;0.10;0.10;;;;;;;;;;5089340;28;20020;-69
2021/05/15 05:32:12;;;;;;;0.00;0.00;;;;;;;;;;5075417;28;20034;-70
2021/05/15 05:34:38;;;;;;;0.00;0.00;;;;;;;;;;5062326;28;20286;-69
2021/05/15 05:37:03;;;;;;;0.10;0.10;;;;;;;;;;5079679;28;20026;-69
2021/05/15 05:39:29;;;;;;;0.10;0.10;;;;;;;;;;5060319;28;20031;-69
2021/05/15 05:41:54;;;;;;;0.10;0.10;;;;;;;;;;5077852;28;20016;-69
2021/05/15 05:44:19;;;;;;;0.10;0.10;;;;;;;;;;5099949;28;20565;-69
2021/05/15 05:46:44;;;;;;;0.00;0.00;;;;;;;;;;5101366;28;20282;-69
2021/05/15 05:49:09;;;;;;;0.10;0.10;;;;;;;;;;5078453;28;20773;-69
2021/05/15 05:51:35;;;;;;;0.10;0.10;;;;;;;;;;5083996;28;20040;-69
2021/05/15 05:54:00;;;;;;;0.00;0.00;;;;;;;;;;5081441;28;20289;-69
2021/05/15 05:56:25;;;;;;;0.10;0.10;;;;;;;;;;5079341;28;20488;-69
2021/05/15 05:58:50;;;;;;;0.10;0.10;;;;;;;;;;5079196;28;20354;-69
2021/05/15 06:01:16;;;;;;;0.10;0.10;;;;;;;;;;5098456;28;20407;-70
2021/05/15 06:03:41;;;;;;;0.00;0.00;;;;;;;;;;5079805;28;20034;-69
2021/05/15 06:06:06;;;;;;;0.10;0.10;;;;;;;;;;5060390;28;20103;-70
2021/05/15 06:08:32;;;;;;;0.00;0.00;;;;;;;;;;5082538;28;20027;-70
2021/05/15 06:10:57;;;;;;;0.00;0.00;;;;;;;;;;5083224;28;20027;-70
2021/05/15 06:13:22;;;;;;;0.00;0.00;;;;;;;;;;5077764;28;20262;-70
2021/05/15 06:15:47;;;;;;;0.10;0.10;;;;;;;;;;5080338;28;20024;-70
2021/05/15 06:18:12;;;;;;;0.00;0.00;;;;;;;;;;5067614;28;20269;-70
2021/05/15 06:20:38;;;;;;;0.03;0.03;;;;;;;;;;5061018;28;20274;-69
2021/05/15 06:23:03;;;;;;;0.05;0.05;;;;;;;;;;5097461;28;20262;-70
2021/05/15 06:25:28;;;;;;;0.10;0.10;;;;;;;;;;5082402;28;20024;-69
2021/05/15 06:27:53;;;;;;;0.00;0.00;;;;;;;;;;5082707;28;20027;-69
2021/05/15 06:30:19;;;;;;;0.00;0.00;;;;;;;;;;5065210;28;20024;-70
2021/05/15 06:32:44;;;;;;;0.00;0.00;;;;;;;;;;5061465;28;20077;-71
2021/05/15 06:35:09;;;;;;;0.00;0.00;;;;;;;;;;5073061;28;20050;-70
2021/05/15 06:37:35;;;;;;;0.00;0.00;;;;;;;;;;5077333;28;20335;-69
2021/05/15 06:40:00;;;;;;;0.00;0.00;;;;;;;;;;5088769;28;20026;-69
2021/05/15 06:42:25;;;;;;;0.08;0.08;;;;;;;;;;5080966;28;20020;-70
2021/05/15 06:44:50;;;;;;;0.03;0.03;;;;;;;;;;5116667;28;20032;-69
2021/05/15 06:47:17;;;;;;;0.10;0.10;;;;;;;;;;5101519;28;20266;-70
2021/05/15 06:49:43;;;;;;;0.00;0.00;;;;;;;;;;5077050;28;20269;-71
2021/05/15 06:52:08;;;;;;;0.05;0.05;;;;;;;;;;5108544;28;20020;-71
2021/05/15 06:54:33;;;;;;;0.00;0.00;;;;;;;;;;5094863;28;20020;-71
2021/05/15 06:56:58;;;;;;;0.00;0.00;;;;;;;;;;5114938;28;20020;-71
2021/05/15 06:59:23;;;;;;;0.00;0.00;;;;;;;;;;5116854;28;20559;-70
2021/05/15 07:01:49;;;;;;;0.10;0.10;;;;;;;;;;5097048;28;20265;-70
2021/05/15 07:04:14;;;;;;;0.00;0.00;;;;;;;;;;5102551;28;20253;-70
2021/05/15 07:06:39;;;;;;;0.00;0.00;;;;;;;;;;5105344;28;20108;-71
2021/05/15 07:09:04;;;;;;;0.00;0.00;;;;;;;;;;5085007;28;20023;-70
2021/05/15 07:11:30;;;;;;;0.00;0.00;;;;;;;;;;5117333;28;20806;-70
2021/05/15 07:13:55;;;;;;;0.00;0.00;;;;;;;;;;5080025;28;20588;-70
2021/05/15 07:16:20;;;;;;;0.10;0.10;;;;;;;;;;5095761;28;20278;-70
2021/05/15 07:18:45;;;;;;;0.00;0.00;;;;;;;;;;5087924;28;20024;-70
2021/05/15 07:21:10;;;;;;;0.10;0.10;;;;;;;;;;5106003;28;20742;-70
2021/05/15 07:23:36;;;;;;;0.00;0.00;;;;;;;;;;5090668;28;20460;-70
2021/05/15 07:26:01;;;;;;;0.00;0.00;;;;;;;;;;5084316;28;20281;-69
2021/05/15 07:28:26;;;;;;;0.00;0.00;;;;;;;;;;5098721;28;20016;-69
2021/05/15 07:30:51;;;;;;;0.00;0.00;;;;;;;;;;5098702;28;20037;-70
2021/05/15 07:33:17;;;;;;;0.00;0.00;;;;;;;;;;5079138;28;20047;-70
2021/05/15 07:35:44;;;;;;;0.00;0.00;;;;;;;;;;5098803;28;20055;-70
2021/05/15 07:38:09;;;;;;;0.00;0.00;;;;;;;;;;5098665;28;20073;-69
2021/05/15 07:40:34;;;;;;;0.00;0.00;;;;;;;;;;5077554;28;20031;-68
2021/05/15 07:43:00;;;;;;;0.00;0.00;;;;;;;;;;5093541;28;20024;-69
2021/05/15 07:45:25;;;;;;;0.00;0.00;;;;;;;;;;5099124;28;20368;-68
2021/05/15 07:47:50;;;;;;;0.00;0.00;;;;;;;;;;5100444;28;20024;-69
2021/05/15 07:50:15;;;;;;;0.00;0.00;;;;;;;;;;5074162;28;20035;-69
2021/05/15 07:52:41;;;;;;;0.00;0.00;;;;;;;;;;5097129;28;20855;-69
2021/05/15 07:55:06;;;;;;;0.00;0.00;;;;;;;;;;5091157;28;20334;-69
2021/05/15 07:57:31;;;;;;;0.00;0.00;;;;;;;;;;5082768;28;20487;-69
2021/05/15 07:59:57;;;;;;;0.00;0.00;;;;;;;;;;5095207;28;20031;-69
2021/05/15 08:02:27;;;;;;;0.10;0.10;;;;;;;;;;5087184;28;20020;-69
2021/05/15 08:04:52;;;;;;;0.00;0.00;;;;;;;;;;5078954;28;20289;-69
2021/05/15 08:07:17;;;;;;;0.00;0.00;;;;;;;;;;5100424;28;20028;-69
2021/05/15 08:09:42;;;;;;;0.00;0.00;;;;;;;;;;5095285;28;20016;-68
2021/05/15 08:12:07;;;;;;;0.00;0.00;;;;;;;;;;5077679;28;20345;-68
2021/05/15 08:14:33;;;;;;;0.00;0.00;;;;;;;;;;5095013;28;20323;-68
2021/05/15 08:16:58;;;;;;;0.10;0.10;;;;;;;;;;5087614;28;20053;-68
2021/05/15 08:19:23;;;;;;;0.00;0.00;;;;;;;;;;5090354;28;21075;-68
2021/05/15 08:21:48;;;;;;;0.00;0.00;;;;;;;;;;5091567;28;20270;-68
2021/05/15 08:24:13;;;;;;;0.00;0.00;;;;;;;;;;5083441;28;20026;-68
2021/05/15 08:26:40;;;;;;;0.00;0.00;;;;;;;;;;5120279;28;20102;-68
2021/05/15 08:29:07;;;;;;;0.00;0.00;;;;;;;;;;5091660;28;20619;-68
2021/05/15 08:31:33;;;;;;;0.00;0.00;;;;;;;;;;5093457;28;20099;-68
2021/05/15 08:33:58;;;;;;;0.00;0.00;;;;;;;;;;5084325;28;20072;-68
2021/05/15 08:36:23;;;;;;;0.00;0.00;;;;;;;;;;5090535;28;20031;-68
2021/05/15 08:38:48;;;;;;;0.00;0.00;;;;;;;;;;5072386;28;20797;-69
2021/05/15 08:41:14;;;;;;;0.00;0.00;;;;;;;;;;5076748;28;20030;-68
2021/05/15 08:43:39;;;;;;;0.00;0.00;;;;;;;;;;5060991;28;20023;-67
2021/05/15 08:46:05;;;;;;;0.00;0.00;;;;;;;;;;5069519;28;20302;-67
2021/05/15 08:48:30;;;;;;;0.00;0.00;;;;;;;;;;5072235;28;20020;-68
2021/05/15 08:50:56;;;;;;;0.00;0.00;;;;;;;;;;5080882;28;20019;-68
2021/05/15 08:53:22;;;;;;;0.00;0.00;;;;;;;;;;5071775;28;20389;-68
2021/05/15 08:55:47;;;;;;;0.00;0.00;;;;;;;;;;5074035;28;20069;-68
2021/05/15 08:58:12;;;;;;;0.00;0.00;;;;;;;;;;5080716;28;20027;-68
2021/05/15 09:00:38;;;;;;;0.00;0.00;;;;;;;;;;5060128;28;20107;-68
2021/05/15 09:03:04;;;;;;;0.00;0.00;;;;;;;;;;5056943;28;20035;-67
2021/05/15 09:05:30;;;;;;;0.00;0.00;;;;;;;;;;5068892;28;20025;-70
2021/05/15 09:07:56;;;;;;;0.00;0.00;;;;;;;;;;5048061;28;20028;-70
2021/05/15 09:10:22;;;;;;;0.00;0.00;;;;;;;;;;5073417;28;20013;-69
2021/05/15 09:12:47;;;;;;;0.00;0.00;;;;;;;;;;5091444;28;20069;-69
2021/05/15 09:15:14;;;;;;;0.00;0.00;;;;;;;;;;5077753;28;20024;-69
2021/05/15 09:17:43;;;;;;;0.00;0.00;;;;;;;;;;5078046;28;20012;-69
2021/05/15 09:20:08;;;;;;;0.00;0.00;;;;;;;;;;5093541;28;20024;-69
2021/05/15 09:22:33;;;;;;;0.00;0.00;;;;;;;;;;5073663;28;20023;-69
2021/05/15 09:25:02;;;;;;;0.00;0.00;;;;;;;;;;5088163;28;20024;-69
2021/05/15 09:27:31;;;;;;;0.00;0.00;;;;;;;;;;5067058;28;20304;-69
2021/05/15 09:29:56;;;;;;;0.00;0.00;;;;;;;;;;5058091;28;20032;-69
2021/05/15 09:32:29;;;;;;;0.00;0.00;;;;;;;;;;5063729;28;20349;-69
2021/05/15 09:34:54;;;;;;;0.00;0.00;;;;;;;;;;5078965;28;20287;-70
2021/05/15 09:37:31;;;;;;;0.00;0.00;;;;;;;;;;5080721;28;20031;-69
2021/05/15 09:39:57;;;;;;;0.00;0.00;;;;;;;;;;5077063;28;20036;-69
2021/05/15 09:42:22;;;;;;;0.00;0.00;;;;;;;;;;5081980;28;20012;-69
2021/05/15 09:44:48;;;;;;;0.00;0.00;;;;;;;;;;5090312;28;20050;-69
2021/05/15 09:47:13;;;;;;;0.00;0.00;;;;;;;;;;5075656;28;20361;-69
2021/05/15 09:49:38;;;;;;;0.00;0.00;;;;;;;;;;5059672;28;20266;-69
2021/05/15 09:52:07;;;;;;;0.00;0.00;;;;;;;;;;5073951;28;20472;-69
2021/05/15 09:54:32;;;;;;;0.00;0.00;;;;;;;;;;5070837;28;20369;-69
2021/05/15 09:56:59;;;;;;;0.00;0.00;;;;;;;;;;5080032;28;20055;-69
2021/05/15 09:59:25;;;;;;;0.00;0.00;;;;;;;;;;5090284;28;20065;-69
2021/05/15 10:01:50;;;;;;;0.00;0.00;;;;;;;;;;5076296;28;20095;-69
2021/05/15 10:04:21;;;;;;;0.00;0.00;;;;;;;;;;5077617;28;20059;-69
2021/05/15 10:06:50;;;;;;;0.00;0.00;;;;;;;;;;5076578;28;20286;-69
2021/05/15 10:09:24;;;;;;;0.00;0.00;;;;;;;;;;5071711;28;20020;-69
2021/05/15 10:11:49;;;;;;;0.00;0.00;;;;;;;;;;5079029;28;20032;-69
2021/05/15 10:14:14;;;;;;;0.00;0.00;;;;;;;;;;5075961;28;20076;-69
2021/05/15 10:16:40;;;;;;;0.00;0.00;;;;;;;;;;5057210;28;20636;-69
2021/05/15 10:19:05;;;;;;;0.00;0.00;;;;;;;;;;5066482;28;20278;-68
2021/05/15 10:21:30;;;;;;;0.00;0.00;;;;;;;;;;5084250;28;20030;-69
2021/05/15 10:23:55;;;;;;;0.00;0.00;;;;;;;;;;5058725;28;20111;-69
2021/05/15 10:26:21;;;;;;;0.00;0.00;;;;;;;;;;5079264;28;20449;-68
2021/05/15 10:29:07;;;;;;;0.00;0.00;;;;;;;;;;5063142;28;20079;-68
2021/05/15 10:31:36;;;;;;;0.00;0.00;;;;;;;;;;5075402;28;20102;-69
2021/05/15 10:34:01;;;;;;;0.00;0.00;;;;;;;;;;5083295;28;20047;-68
2021/05/15 10:36:27;;;;;;;0.00;0.00;;;;;;;;;;5064480;28;20020;-68
2021/05/15 10:38:52;;;;;;;0.00;0.00;;;;;;;;;;5077808;28;20019;-68
2021/05/15 10:41:27;;;;;;;0.00;0.00;;;;;;;;;;5083364;28;20069;-68
2021/05/15 10:43:53;;;;;;;0.00;0.00;;;;;;;;;;5073111;28;20376;-69
2021/05/15 10:46:19;;;;;;;0.00;0.00;;;;;;;;;;5056462;28;20024;-69
2021/05/15 10:48:56;;;;;;;0.00;0.00;;;;;;;;;;5058349;28;20027;-69
2021/05/15 10:51:34;;;;;;;0.00;0.00;;;;;;;;;;5061596;28;20256;-70
2021/05/15 10:53:59;;;;;;;0.00;0.00;;;;;;;;;;5100029;28;20041;-69
2021/05/15 10:56:26;;;;;;;0.00;0.00;;;;;;;;;;5086851;28;20016;-70
2021/05/15 10:58:52;;;;;;;0.00;0.00;;;;;;;;;;5072853;28;20087;-69
2021/05/15 11:01:20;;;;;;;0.00;0.00;;;;;;;;;;5073681;28;20059;-69
2021/05/15 11:03:46;;;;;;;0.00;0.00;;;;;;;;;;5077132;28;20103;-70
2021/05/15 11:06:21;;;;;;;0.00;0.00;;;;;;;;;;5094071;28;20492;-69
2021/05/15 11:08:46;;;;;;;;;;;;;;;;;;5059528;28;20479;-70
2021/05/15 11:11:12;;;;;;;0.00;0.00;;;;;;;;;;5087084;28;20669;-69
2021/05/15 11:13:47;;;;;;;0.00;0.00;;;;;;;;;;5105411;28;20023;-68
2021/05/15 11:16:12;;;;;;;0.00;0.00;;;;;;;;;;5061113;28;20051;-68
2021/05/15 11:18:37;;;;;;;0.00;0.00;;;;;;;;;;5099959;28;20019;-69
2021/05/15 11:21:05;;;;;;;0.00;0.00;;;;;;;;;;5058519;28;20020;-69
2021/05/15 11:23:30;;;;;;;0.00;0.00;;;;;;;;;;5056641;28;20051;-69
2021/05/15 11:25:56;;;;;;;0.00;0.00;;;;;;;;;;5092203;28;20023;-72
2021/05/15 11:28:22;;;;;;;0.00;0.00;;;;;;;;;;5071031;28;20754;-72
2021/05/15 11:30:47;;;;;;;0.00;0.00;;;;;;;;;;5078941;28;20027;-71
2021/05/15 11:33:13;;;;;;;0.00;0.00;;;;;;;;;;5058617;28;20016;-70
2021/05/15 11:35:42;;;;;;;0.00;0.00;;;;;;;;;;5083624;28;20286;-70
2021/05/15 11:38:08;;;;;;;0.00;0.00;;;;;;;;;;5111249;28;20448;-69
2021/05/15 11:40:34;;;;;;;0.00;0.00;;;;;;;;;;5072602;28;20464;-70
2021/05/15 11:42:59;;;;;;;0.00;0.00;;;;;;;;;;5077039;28;20016;-70
2021/05/15 11:45:27;;;;;;;0.00;0.00;;;;;;;;;;5076341;28;20023;-70
2021/05/15 11:48:06;;;;;;;0.00;0.00;;;;;;;;;;5097782;28;20024;-69
2021/05/15 11:50:31;;;;;;;0.00;0.00;;;;;;;;;;5084778;28;20055;-70
2021/05/15 11:53:01;;;;;;;0.00;0.00;;;;;;;;;;5104423;28;20673;-69
2021/05/15 11:55:26;;;;;;;0.00;0.00;;;;;;;;;;5110758;28;20269;-70
2021/05/15 11:57:55;;;;;;;0.00;0.00;;;;;;;;;;5088192;28;20345;-69
2021/05/15 12:00:21;;;;;;;0.00;0.00;;;;;;;;;;5071533;28;20035;-69
2021/05/15 12:02:46;;;;;;;0.00;0.00;;;;;;;;;;5071990;28;20461;-69
2021/05/15 12:05:15;;;;;;;0.00;0.00;;;;;;;;;;5066797;28;20043;-69
2021/05/15 12:07:46;;;;;;;0.00;0.00;;;;;;;;;;5080876;28;20071;-69
2021/05/15 12:10:21;;;;;;;0.00;0.00;;;;;;;;;;5087076;28;20358;-69
2021/05/15 12:12:56;;;;;;;0.00;0.00;;;;;;;;;;5113571;28;20084;-68
2021/05/15 12:15:21;;;;;;;;;;;;;;;;;;5087003;28;20069;-69
2021/05/15 12:17:47;;;;;;;0.00;0.00;;;;;;;;;;5083617;28;19908;-69
2021/05/15 12:20:23;;;;;;;0.00;0.00;;;;;;;;;;5088717;28;20016;-69
2021/05/15 12:22:48;;;;;;;0.00;0.00;;;;;;;;;;5088248;28;20273;-70
2021/05/15 12:25:14;;;;;;;0.00;0.00;;;;;;;;;;5089734;28;20662;-69
2021/05/15 12:27:40;;;;;;;0.00;0.00;;;;;;;;;;5073844;28;20016;-70
2021/05/15 12:30:06;;;;;;;0.00;0.00;;;;;;;;;;5078946;28;20024;-70
2021/05/15 12:32:32;;;;;;;0.00;0.00;;;;;;;;;;5071451;28;20020;-69
2021/05/15 12:35:01;;;;;;;0.00;0.00;;;;;;;;;;5090499;28;20079;-70
2021/05/15 12:37:38;;;;;;;0.00;0.00;;;;;;;;;;5088472;28;20149;-70
2021/05/15 12:40:07;;;;;;;0.00;0.00;;;;;;;;;;5091590;28;20024;-70
2021/05/15 12:42:32;;;;;;;0.00;0.00;;;;;;;;;;5086172;28;20032;-70
2021/05/15 12:45:07;;;;;;;0.00;0.00;;;;;;;;;;5095866;28;20034;-70
2021/05/15 12:47:33;;;;;;;0.00;0.00;;;;;;;;;;5102105;28;20029;-70
2021/05/15 12:49:58;;;;;;;0.00;0.00;;;;;;;;;;5097889;28;20020;-68
2021/05/15 12:52:25;;;;;;;0.00;0.00;;;;;;;;;;5096634;28;20051;-67
2021/05/15 12:54:50;;;;;;;0.00;0.00;;;;;;;;;;5099288;28;20273;-67
2021/05/15 12:57:18;;;;;;;0.00;0.00;;;;;;;;;;5090825;28;20111;-68
2021/05/15 12:59:46;;;;;;;0.00;0.00;;;;;;;;;;5095424;28;20019;-68
2021/05/15 13:02:14;;;;;;;0.00;0.00;;;;;;;;;;5097538;28;20069;-68
2021/05/15 13:04:41;;;;;;;0.00;0.00;;;;;;;;;;5099753;28;20422;-68
2021/05/15 13:07:07;;;;;;;0.00;0.00;;;;;;;;;;5090525;28;20023;-67
2021/05/15 13:09:32;;;;;;;0.00;0.00;;;;;;;;;;5067862;28;20085;-68
2021/05/15 13:11:57;;;;;;;0.00;0.00;;;;;;;;;;5079484;28;20021;-71
2021/05/15 13:14:23;;;;;;;0.00;0.00;;;;;;;;;;5087843;28;20301;-72
2021/05/15 13:16:51;;;;;;;0.00;0.00;;;;;;;;;;5092965;28;20298;-72
2021/05/15 13:19:17;;;;;;;0.00;0.00;;;;;;;;;;5088323;28;20024;-71
2021/05/15 13:21:42;;;;;;;0.00;0.00;;;;;;;;;;5094194;28;20019;-71
2021/05/15 13:24:07;;;;;;;0.00;0.00;;;;;;;;;;5071938;28;20024;-71
2021/05/15 13:26:32;;;;;;;0.00;0.00;;;;;;;;;;5084848;28;20305;-71
2021/05/15 13:28:57;;;;;;;0.00;0.00;;;;;;;;;;5098589;28;20691;-71
2021/05/15 13:31:25;;;;;;;0.00;0.00;;;;;;;;;;5093322;28;20269;-72
2021/05/15 13:33:50;;;;;;;0.00;0.00;;;;;;;;;;5111415;28;20035;-72
2021/05/15 13:36:16;;;;;;;0.00;0.00;;;;;;;;;;5101397;28;20543;-72
2021/05/15 13:38:41;;;;;;;0.00;0.00;;;;;;;;;;5061691;28;20016;-72
2021/05/15 13:41:08;;;;;;;0.00;0.00;;;;;;;;;;5081061;28;20690;-72
2021/05/15 13:43:34;;;;;;;0.00;0.00;;;;;;;;;;5076793;28;20097;-72
2021/05/15 13:45:59;;;;;;;0.00;0.00;;;;;;;;;;5086525;28;20051;-72
2021/05/15 13:48:31;;;;;;;0.00;0.00;;;;;;;;;;5094686;28;20656;-72
2021/05/15 13:50:59;;;;;;;0.00;0.00;;;;;;;;;;5080502;28;20523;-72
2021/05/15 13:53:24;;;;;;;0.00;0.00;;;;;;;;;;5077530;28;20026;-72
2021/05/15 13:55:50;;;;;;;0.00;0.00;;;;;;;;;;5085038;28;21363;-72
2021/05/15 13:58:15;;;;;;;0.00;0.00;;;;;;;;;;5094435;28;20506;-71
2021/05/15 14:00:40;;;;;;;0.00;0.00;;;;;;;;;;5085520;28;20274;-72
2021/05/15 14:03:05;;;;;;;0.00;0.00;;;;;;;;;;5078323;28;20267;-72
2021/05/15 14:05:30;;;;;;;0.00;0.00;;;;;;;;;;5056031;28;20285;-72
2021/05/15 14:07:58;;;;;;;0.00;0.00;;;;;;;;;;5092465;28;20282;-73
2021/05/15 14:10:23;;;;;;;0.00;0.00;;;;;;;;;;5061262;28;20288;-72
2021/05/15 14:12:48;;;;;;;0.00;0.00;;;;;;;;;;5091206;28;20103;-72
2021/05/15 14:15:13;;;;;;;0.00;0.00;;;;;;;;;;5083525;28;20350;-72
2021/05/15 14:17:38;;;;;;;0.00;0.00;;;;;;;;;;5064390;28;20285;-72
2021/05/15 14:20:04;;;;;;;0.00;0.00;;;;;;;;;;5075243;28;20277;-72
2021/05/15 14:22:29;;;;;;;0.00;0.00;;;;;;;;;;5079977;28;20277;-72
2021/05/15 14:24:54;;;;;;;0.00;0.00;;;;;;;;;;5077673;28;20749;-72
2021/05/15 14:27:21;;;;;;;0.00;0.00;;;;;;;;;;5073377;28;20028;-71
2021/05/15 14:29:46;;;;;;;0.00;0.00;;;;;;;;;;5099615;28;20019;-72
2021/05/15 14:32:12;;;;;;;0.00;0.00;;;;;;;;;;5061661;28;20162;-72
2021/05/15 14:34:37;;;;;;;0.00;0.00;;;;;;;;;;5043984;28;20283;-72
2021/05/15 14:37:02;;;;;;;0.00;0.00;;;;;;;;;;5086230;28;20780;-72
2021/05/15 14:39:27;;;;;;;0.00;0.00;;;;;;;;;;5072442;28;20023;-73
2021/05/15 14:41:53;;;;;;;0.00;0.00;;;;;;;;;;5056481;28;20016;-73